Time;durP1;ratioP1;P1;durP2;ratioP2;P2;SDS_P1;SDS_P2;PMS_P1;PMS_P2;Temp;Humidity;BMP_temperature;BMP_pressure;BME280_temperature;BME280_humidity;BME280_pressure;Samples;Min_cycle;Max_cycle;Signal;HPM_P1;HPM_P2
2022/09/09 00:01:15;;;;;;;2.67;1.70;;;;;;;18.23;100.00;99864.44;5035865;28;20045;-72
2022/09/09 00:03:48;;;;;;;2.53;1.50;;;;;;;18.23;100.00;99876.09;5036169;28;20048;-72
2022/09/09 00:06:25;;;;;;;3.25;1.80;;;;;;;18.15;100.00;99865.22;5035940;28;20453;-72
2022/09/09 00:09:03;;;;;;;2.75;1.50;;;;;;;18.20;100.00;99860.19;5034638;28;20080;-73
2022/09/09 00:11:43;;;;;;;2.65;1.65;;;;;;;17.98;100.00;99858.75;5036216;28;20045;-73
2022/09/09 00:14:22;;;;;;;3.70;1.55;;;;;;;18.07;100.00;99856.16;5035910;28;20459;-73
2022/09/09 00:16:55;;;;;;;3.78;1.70;;;;;;;18.07;100.00;99850.75;5035421;28;20046;-73
2022/09/09 00:19:30;;;;;;;3.13;1.80;;;;;;;17.99;100.00;99856.91;5035998;28;20041;-73
2022/09/09 00:22:15;;;;;;;2.17;1.60;;;;;;;17.88;100.00;99857.94;5035680;28;20073;-73
2022/09/09 00:24:47;;;;;;;1.88;1.42;;;;;;;17.81;100.00;99873.03;5035361;28;20108;-73
2022/09/09 00:27:27;;;;;;;2.47;1.42;;;;;;;17.82;100.00;99880.13;5035930;28;20037;-75
2022/09/09 00:30:13;;;;;;;2.65;1.80;;;;;;;17.82;100.00;99879.25;5034654;28;20042;-75
2022/09/09 00:32:42;;;;;;;2.42;1.60;;;;;;;17.90;100.00;99882.09;5035341;28;20046;-75
2022/09/09 00:35:18;;;;;;;2.22;1.63;;;;;;;17.83;100.00;99886.34;5035584;28;20120;-74
2022/09/09 00:37:51;;;;;;;3.03;1.73;;;;;;;17.86;100.00;99869.91;5035229;28;20041;-75
2022/09/09 00:40:30;;;;;;;2.10;1.40;;;;;;;17.92;100.00;99872.84;5035599;28;20076;-74
2022/09/09 00:43:19;;;;;;;4.63;1.70;;;;;;;17.93;100.00;99877.22;5035148;28;20570;-75
2022/09/09 00:46:06;;;;;;;2.10;1.60;;;;;;;17.78;100.00;99883.28;5035237;28;20052;-75
2022/09/09 00:48:46;;;;;;;2.45;1.67;;;;;;;17.77;100.00;99873.47;5035544;28;20108;-75
2022/09/09 00:51:20;;;;;;;4.82;2.00;;;;;;;17.81;100.00;99874.88;5034952;28;20057;-75
2022/09/09 00:54:11;;;;;;;2.80;1.70;;;;;;;17.87;100.00;99877.00;5035210;28;20064;-74
2022/09/09 00:56:47;;;;;;;3.67;2.00;;;;;;;17.88;100.00;99874.13;5035220;28;20117;-75
2022/09/09 00:59:29;;;;;;;2.95;1.95;;;;;;;17.83;100.00;99871.03;5035193;28;20041;-74
2022/09/09 01:01:58;;;;;;;4.10;1.90;;;;;;;17.81;100.00;99869.47;5034907;28;20175;-74
2022/09/09 01:04:34;;;;;;;3.70;2.10;;;;;;;17.81;100.00;99866.78;5034832;28;20060;-75
2022/09/09 01:07:10;;;;;;;3.15;1.80;;;;;;;17.70;100.00;99875.91;5034612;28;20042;-75
2022/09/09 01:09:52;;;;;;;3.25;2.00;;;;;;;17.67;100.00;99882.41;5034902;28;20382;-75
2022/09/09 01:12:31;;;;;;;6.07;2.30;;;;;;;17.57;100.00;99891.53;5035029;28;20103;-75
2022/09/09 01:15:11;;;;;;;4.40;2.00;;;;;;;17.56;100.00;99890.66;5034745;28;20083;-75
2022/09/09 01:17:51;;;;;;;2.80;1.80;;;;;;;17.66;100.00;99891.50;5034866;28;20053;-80
2022/09/09 01:20:25;;;;;;;3.53;2.15;;;;;;;17.71;100.00;99902.72;5034841;28;20052;-75
2022/09/09 01:23:07;;;;;;;3.38;2.30;;;;;;;17.69;100.00;99895.75;5034559;28;20041;-74
2022/09/09 01:26:14;;;;;;;3.75;2.22;;;;;;;17.73;100.00;99902.56;5034534;28;20061;-75
2022/09/09 01:28:45;;;;;;;4.65;2.10;;;;;;;17.77;100.00;99909.41;5034387;28;20377;-75
2022/09/09 01:31:18;;;;;;;5.03;2.45;;;;;;;17.73;100.00;99907.97;5034747;28;20052;-75
2022/09/09 01:33:47;;;;;;;;;;;;;;;17.77;100.00;99919.34;5034480;28;20120;-75
2022/09/09 01:36:25;;;;;;;3.67;2.10;;;;;;;17.76;100.00;99913.09;5034250;28;20383;-74
2022/09/09 01:38:54;;;;;;;3.38;2.28;;;;;;;17.78;100.00;99910.25;5033989;28;20042;-75
2022/09/09 01:41:24;;;;;;;3.08;2.30;;;;;;;17.80;100.00;99910.94;5033103;28;20050;-74
2022/09/09 01:43:55;;;;;;;4.47;2.50;;;;;;;17.93;100.00;99903.34;5033943;28;20042;-74
2022/09/09 01:46:24;;;;;;;3.40;2.42;;;;;;;17.89;100.00;99900.13;5034121;28;20520;-74
2022/09/09 01:48:55;;;;;;;3.47;2.40;;;;;;;17.78;100.00;99899.44;5034091;28;20076;-74
2022/09/09 01:51:24;;;;;;;4.72;2.70;;;;;;;17.74;100.00;99898.88;5034083;28;20115;-74
2022/09/09 01:53:52;;;;;;;4.30;2.40;;;;;;;17.71;100.00;99904.56;5032592;28;20055;-75
2022/09/09 01:56:32;;;;;;;5.60;2.20;;;;;;;17.61;100.00;99909.97;5034069;28;20049;-74
2022/09/09 01:59:19;;;;;;;5.15;2.70;;;;;;;17.59;100.00;99917.34;5033584;28;20103;-75
2022/09/09 02:01:59;;;;;;;4.20;2.40;;;;;;;17.57;100.00;99913.97;5033640;28;20129;-75
2022/09/09 02:04:37;;;;;;;3.63;2.60;;;;;;;17.65;100.00;99914.06;5034056;28;20480;-75
2022/09/09 02:07:19;;;;;;;3.92;2.55;;;;;;;17.67;100.00;99908.53;5032185;28;20129;-75
2022/09/09 02:09:52;;;;;;;6.18;2.60;;;;;;;17.48;100.00;99904.03;5033767;28;20042;-75
2022/09/09 02:12:25;;;;;;;4.20;2.80;;;;;;;17.39;100.00;99913.00;5033936;28;20464;-75
2022/09/09 02:14:59;;;;;;;6.38;3.25;;;;;;;17.42;100.00;99912.69;5033749;28;20046;-75
2022/09/09 02:17:30;;;;;;;5.32;3.08;;;;;;;17.53;100.00;99920.63;5032252;28;20049;-75
2022/09/09 02:20:03;;;;;;;5.15;3.10;;;;;;;17.39;100.00;99923.78;5032201;28;20049;-75
2022/09/09 02:22:34;;;;;;;4.63;3.10;;;;;;;17.40;100.00;99923.63;5032612;28;20077;-74
2022/09/09 02:25:05;;;;;;;7.65;3.20;;;;;;;17.52;100.00;99927.00;5033299;28;20045;-74
2022/09/09 02:27:35;;;;;;;5.15;3.03;;;;;;;17.57;100.00;99924.75;5033334;28;20041;-74
2022/09/09 02:30:06;;;;;;;4.53;2.60;;;;;;;17.48;100.00;99928.31;5033205;28;20822;-73
2022/09/09 02:32:37;;;;;;;3.65;2.58;;;;;;;17.51;100.00;99919.91;5032379;28;20068;-73
2022/09/09 02:35:10;;;;;;;5.15;2.70;;;;;;;17.51;100.00;99911.81;5033232;28;20087;-73
2022/09/09 02:37:39;;;;;;;;;;;;;;;17.46;100.00;99920.34;5033866;28;20041;-74
2022/09/09 02:40:13;;;;;;;4.00;2.67;;;;;;;17.37;100.00;99917.66;5033008;28;19921;-74
2022/09/09 02:42:45;;;;;;;7.60;2.78;;;;;;;17.37;100.00;99917.66;5033156;28;20447;-75
2022/09/09 02:45:17;;;;;;;4.00;2.55;;;;;;;17.35;100.00;99914.25;5048963;28;20111;-74
2022/09/09 02:47:56;;;;;;;4.35;2.60;;;;;;;17.41;100.00;99917.22;5032816;28;20477;-75
2022/09/09 02:50:30;;;;;;;3.88;2.88;;;;;;;17.46;100.00;99911.41;5031749;28;20111;-74
2022/09/09 02:53:09;;;;;;;6.57;3.08;;;;;;;17.34;100.00;99909.88;5032208;28;20412;-74
2022/09/09 02:55:48;;;;;;;4.60;2.58;;;;;;;17.34;100.00;99907.16;5033251;28;20042;-74
2022/09/09 02:58:20;;;;;;;3.50;2.40;;;;;;;17.34;100.00;99907.16;5028630;28;20405;-74
2022/09/09 03:00:50;;;;;;;3.60;2.60;;;;;;;17.26;100.00;99915.13;5012043;28;20402;-77
2022/09/09 03:03:21;;;;;;;5.80;2.90;;;;;;;17.07;100.00;99908.75;5013081;28;20050;-76
2022/09/09 03:05:49;;;;;;;4.20;2.75;;;;;;;16.90;100.00;99911.31;5013390;28;20408;-75
2022/09/09 03:08:18;;;;;;;4.18;2.60;;;;;;;16.84;100.00;99915.41;5013361;28;20136;-76
2022/09/09 03:10:46;;;;;;;5.47;2.40;;;;;;;16.84;100.00;99915.41;5013289;28;20096;-74
2022/09/09 03:13:15;;;;;;;3.65;2.50;;;;;;;16.82;100.00;99920.09;5013093;28;20124;-72
2022/09/09 03:15:45;;;;;;;4.60;2.80;;;;;;;16.84;100.00;99926.19;5013118;28;20045;-73
2022/09/09 03:18:13;;;;;;;4.13;2.40;;;;;;;16.84;100.00;99927.03;5013361;28;20042;-73
2022/09/09 03:20:42;;;;;;;4.55;2.50;;;;;;;16.91;100.00;99921.94;5013188;28;20073;-72
2022/09/09 03:23:13;;;;;;;5.78;3.17;;;;;;;16.77;100.00;99928.56;5011749;28;20412;-73
2022/09/09 03:25:48;;;;;;;4.57;3.00;;;;;;;16.78;100.00;99927.56;5013178;28;20042;-73
2022/09/09 03:28:16;;;;;;;4.63;3.00;;;;;;;16.72;100.00;99922.75;5012972;28;20042;-73
2022/09/09 03:30:47;;;;;;;4.20;3.20;;;;;;;16.68;100.00;99925.81;5013254;28;20048;-73
2022/09/09 03:33:16;;;;;;;3.92;3.10;;;;;;;16.69;100.00;99920.34;5012293;28;20050;-73
2022/09/09 03:35:48;;;;;;;4.65;3.25;;;;;;;16.60;100.00;99924.72;5012941;28;20444;-73
2022/09/09 03:38:17;;;;;;;4.97;3.25;;;;;;;16.55;100.00;99929.63;5013074;28;20125;-73
2022/09/09 03:40:51;;;;;;;5.07;3.33;;;;;;;16.54;100.00;99919.88;5012766;28;20120;-73
2022/09/09 03:43:19;;;;;;;4.30;3.13;;;;;;;16.57;100.00;99924.97;5011930;28;20103;-73
2022/09/09 03:45:49;;;;;;;4.25;3.40;;;;;;;16.55;100.00;99923.41;5013053;28;20046;-72
2022/09/09 03:48:18;;;;;;;5.03;3.28;;;;;;;16.58;100.00;99925.81;5011677;28;20057;-71
2022/09/09 03:50:48;;;;;;;5.38;3.30;;;;;;;16.54;100.00;99921.72;5013014;28;20140;-71
2022/09/09 03:53:19;;;;;;;5.55;3.80;;;;;;;16.56;100.00;99927.78;5011362;28;20049;-72
2022/09/09 03:55:48;;;;;;;5.53;3.65;;;;;;;16.55;100.00;99921.56;5012978;28;20073;-72
2022/09/09 03:58:18;;;;;;;5.68;3.50;;;;;;;16.51;100.00;99940.84;5013017;28;20073;-71
2022/09/09 04:00:55;;;;;;;6.35;4.03;;;;;;;16.42;100.00;99937.13;5011378;28;20050;-71
2022/09/09 04:03:25;;;;;;;4.93;3.35;;;;;;;16.46;100.00;99933.16;5013752;28;20073;-74
2022/09/09 04:05:58;;;;;;;7.15;3.88;;;;;;;16.44;100.00;99937.84;5014852;28;20061;-76
2022/09/09 04:08:27;;;;;;;5.80;3.47;;;;;;;16.40;100.00;99932.84;5016420;28;20038;-72
2022/09/09 04:10:56;;;;;;;5.78;3.60;;;;;;;16.43;100.00;99937.97;5015834;28;20077;-75
2022/09/09 04:13:26;;;;;;;5.55;3.42;;;;;;;16.48;100.00;99935.69;5014865;28;20049;-74
2022/09/09 04:15:57;;;;;;;4.82;3.55;;;;;;;16.42;100.00;99930.88;5015614;28;20069;-75
2022/09/09 04:18:27;;;;;;;6.38;3.88;;;;;;;16.47;100.00;99929.47;5014663;28;20061;-74
2022/09/09 04:20:56;;;;;;;4.60;3.72;;;;;;;16.52;100.00;99935.31;5015703;28;20050;-73
2022/09/09 04:23:27;;;;;;;5.32;3.65;;;;;;;16.54;100.00;99941.41;5014555;28;20100;-72
2022/09/09 04:25:56;;;;;;;4.85;3.80;;;;;;;16.49;100.00;99932.88;5015615;28;20041;-72
2022/09/09 04:28:27;;;;;;;6.07;3.78;;;;;;;16.59;100.00;99939.13;5015752;28;20499;-72
2022/09/09 04:30:57;;;;;;;4.82;3.47;;;;;;;16.56;100.00;99947.50;5014235;28;20052;-73
2022/09/09 04:33:27;;;;;;;5.32;3.70;;;;;;;16.63;100.00;99944.25;5016240;28;20057;-72
2022/09/09 04:35:55;;;;;;;8.32;3.50;;;;;;;16.66;100.00;99941.28;5014342;28;20077;-73
2022/09/09 04:38:23;;;;;;;4.30;3.40;;;;;;;16.67;100.00;99940.28;5015712;28;20107;-73
2022/09/09 04:40:53;;;;;;;4.47;3.05;;;;;;;16.76;100.00;99945.72;5015673;28;20120;-74
2022/09/09 04:43:22;;;;;;;4.95;3.33;;;;;;;16.71;100.00;99942.63;5015555;28;20042;-74
2022/09/09 04:45:52;;;;;;;4.85;3.25;;;;;;;16.71;100.00;99941.75;5015606;28;20042;-76
2022/09/09 04:48:22;;;;;;;4.70;3.60;;;;;;;16.83;100.00;99940.63;5015482;28;20116;-72
2022/09/09 04:50:58;;;;;;;5.65;3.50;;;;;;;17.03;100.00;99936.13;5015512;28;20089;-72
2022/09/09 04:53:26;;;;;;;5.45;3.47;;;;;;;17.02;100.00;99934.41;5015330;28;20041;-72
2022/09/09 04:56:04;;;;;;;6.32;3.50;;;;;;;16.89;100.00;99940.09;5014933;28;20096;-73
2022/09/09 04:58:33;;;;;;;5.50;3.45;;;;;;;16.99;100.00;99934.72;5015360;28;20420;-73
2022/09/09 05:01:09;;;;;;;4.30;3.35;;;;;;;17.05;100.00;99940.38;5013601;28;20182;-73
2022/09/09 05:03:39;;;;;;;8.15;4.25;;;;;;;17.01;100.00;99930.03;5015536;28;20112;-74
2022/09/09 05:06:09;;;;;;;6.05;3.45;;;;;;;17.05;100.00;99929.59;5014784;28;20042;-73
2022/09/09 05:08:38;;;;;;;11.10;4.80;;;;;;;17.13;100.00;99927.03;5015018;28;20120;-73
2022/09/09 05:11:16;;;;;;;9.80;4.28;;;;;;;17.11;100.00;99936.28;5014812;28;20092;-73
2022/09/09 05:13:45;;;;;;;5.95;3.47;;;;;;;17.14;100.00;99939.53;5015085;28;20517;-73
2022/09/09 05:16:14;;;;;;;8.20;3.70;;;;;;;17.06;100.00;99946.59;5014037;28;20049;-73
2022/09/09 05:18:44;;;;;;;6.95;4.13;;;;;;;17.07;100.00;99943.75;5014612;28;20129;-74
2022/09/09 05:21:14;;;;;;;5.57;3.30;;;;;;;17.18;100.00;99948.19;5013385;28;20085;-71
2022/09/09 05:23:42;;;;;;;4.97;3.38;;;;;;;17.29;100.00;99941.81;5014847;28;20050;-75
2022/09/09 05:26:14;;;;;;;6.80;3.47;;;;;;;17.32;100.00;99936.97;5012926;28;20048;-75
2022/09/09 05:28:45;;;;;;;6.13;3.50;;;;;;;17.48;100.00;99944.47;5013233;28;20042;-75
2022/09/09 05:31:16;;;;;;;6.05;3.63;;;;;;;17.48;100.00;99946.34;5014112;28;20045;-75
2022/09/09 05:33:47;;;;;;;5.45;3.70;;;;;;;17.48;100.00;99957.13;5014421;28;20046;-75
2022/09/09 05:36:18;;;;;;;5.63;3.33;;;;;;;17.59;100.00;99955.09;5014345;28;20092;-75
2022/09/09 05:38:49;;;;;;;5.95;3.63;;;;;;;17.80;100.00;99954.09;5014659;28;20132;-75
2022/09/09 05:41:18;;;;;;;4.97;3.45;;;;;;;17.97;100.00;99953.34;5014168;28;20420;-75
2022/09/09 05:43:47;;;;;;;5.55;3.70;;;;;;;18.09;100.00;99959.41;5014150;28;20125;-74
2022/09/09 05:46:17;;;;;;;5.20;3.38;;;;;;;18.18;100.00;99956.69;5014188;28;20045;-75
2022/09/09 05:48:50;;;;;;;5.40;3.30;;;;;;;18.30;100.00;99960.03;5013167;28;20129;-74
2022/09/09 05:51:21;;;;;;;4.78;2.92;;;;;;;18.42;100.00;99964.22;5013959;28;20128;-72
2022/09/09 05:53:50;;;;;;;4.13;2.92;;;;;;;18.51;100.00;99962.50;5013069;28;20108;-73
2022/09/09 05:56:21;;;;;;;4.10;2.90;;;;;;;18.57;100.00;99962.75;5013976;28;20080;-73
2022/09/09 05:58:51;;;;;;;4.68;2.63;;;;;;;18.74;100.00;99957.56;5012941;28;20053;-78
2022/09/09 06:01:21;;;;;;;5.50;3.30;;;;;;;18.70;100.00;99962.41;5013951;28;20046;-78
2022/09/09 06:03:52;;;;;;;7.40;3.13;;;;;;;18.68;100.00;99956.31;5013111;28;20050;-79
2022/09/09 06:06:22;;;;;;;5.35;3.17;;;;;;;18.73;100.00;99958.59;5014052;28;20038;-82
2022/09/09 06:08:52;;;;;;;9.15;3.10;;;;;;;18.78;100.00;99967.06;5012390;28;20092;-78
2022/09/09 06:11:22;;;;;;;5.75;3.20;;;;;;;18.88;100.00;99966.00;5013540;28;20045;-80
2022/09/09 06:13:53;;;;;;;4.10;2.83;;;;;;;19.12;100.00;99965.41;5013546;28;20504;-78
2022/09/09 06:16:23;;;;;;;6.18;3.08;;;;;;;19.39;100.00;99967.16;5012280;28;20551;-74
2022/09/09 06:18:54;;;;;;;5.05;2.78;;;;;;;19.50;100.00;99965.25;5013779;28;20131;-77
2022/09/09 06:21:24;;;;;;;5.88;3.15;;;;;;;19.69;100.00;99963.25;5013593;28;20046;-78
2022/09/09 06:23:53;;;;;;;6.70;2.90;;;;;;;19.93;100.00;99959.00;5012296;28;20050;-74
2022/09/09 06:26:28;;;;;;;3.88;2.40;;;;;;;19.76;100.00;99963.44;5013082;28;20519;-73
2022/09/09 06:28:57;;;;;;;4.45;2.40;;;;;;;19.87;100.00;99962.31;5011785;28;20104;-82
2022/09/09 06:31:30;;;;;;;3.95;2.70;;;;;;;20.01;100.00;99968.03;5013339;28;20460;-72
2022/09/09 06:34:00;;;;;;;4.18;2.30;;;;;;;20.10;100.00;99968.94;5013362;28;20042;-73
2022/09/09 06:36:30;;;;;;;8.95;2.42;;;;;;;20.52;100.00;99968.13;5011579;28;20461;-74
2022/09/09 06:38:59;;;;;;;3.88;1.67;;;;;;;20.64;100.00;99969.53;5014163;28;20054;-74
2022/09/09 06:41:29;;;;;;;4.05;2.00;;;;;;;20.78;100.00;99965.38;5012234;28;20073;-74
2022/09/09 06:43:58;;;;;;;2.63;1.70;;;;;;;21.09;100.00;99965.59;5013556;28;20487;-74
2022/09/09 06:46:28;;;;;;;3.33;1.95;;;;;;;20.82;100.00;99964.84;5012071;28;20050;-73
2022/09/09 06:48:59;;;;;;;4.13;2.08;;;;;;;21.01;100.00;99952.88;5012720;28;20518;-72
2022/09/09 06:51:30;;;;;;;3.42;2.17;;;;;;;20.70;100.00;99962.63;5013102;28;20397;-72
2022/09/09 06:54:00;;;;;;;3.05;1.85;;;;;;;20.80;100.00;99966.88;5014317;28;20068;-72
2022/09/09 06:56:30;;;;;;;6.22;1.88;;;;;;;20.93;100.00;99966.41;5011935;28;20369;-72
2022/09/09 06:59:03;;;;;;;4.18;1.80;;;;;;;20.82;100.00;99964.84;5031600;28;20515;-72
2022/09/09 07:01:34;;;;;;;4.50;1.88;;;;;;;20.56;100.00;99970.38;5032685;28;20424;-72
2022/09/09 07:04:07;;;;;;;4.40;2.00;;;;;;;20.56;100.00;99973.09;5032640;28;20049;-74
2022/09/09 07:06:38;;;;;;;6.15;2.05;;;;;;;20.76;100.00;99976.38;5029683;28;20049;-72
2022/09/09 07:09:08;;;;;;;5.05;2.00;;;;;;;20.47;100.00;99975.94;5017898;28;20049;-72
2022/09/09 07:11:41;;;;;;;6.38;2.10;;;;;;;20.27;100.00;99983.41;5024450;28;20041;-72
2022/09/09 07:14:11;;;;;;;3.83;1.97;;;;;;;20.38;100.00;99985.00;5014868;28;20085;-72
2022/09/09 07:16:40;;;;;;;4.55;2.00;;;;;;;20.14;100.00;99985.69;5012919;28;20637;-74
2022/09/09 07:19:08;;;;;;;3.53;1.70;;;;;;;19.66;100.00;99987.88;5012324;28;20485;-72
2022/09/09 07:21:40;;;;;;;5.15;1.75;;;;;;;19.73;100.00;99993.53;5026347;28;20049;-75
2022/09/09 07:24:09;;;;;;;4.75;2.03;;;;;;;19.77;100.00;99989.50;5032624;28;20045;-74
2022/09/09 07:26:39;;;;;;;5.50;2.20;;;;;;;19.96;100.00;99989.28;5027381;28;20069;-77
2022/09/09 07:29:08;;;;;;;5.13;1.80;;;;;;;20.08;100.00;99986.34;5012046;28;20385;-77
2022/09/09 07:31:42;;;;;;;3.83;1.70;;;;;;;20.04;100.00;99988.50;5012344;28;20044;-76
2022/09/09 07:34:10;;;;;;;3.50;1.70;;;;;;;19.82;100.00;99992.59;5012695;28;20038;-76
2022/09/09 07:36:41;;;;;;;3.22;1.63;;;;;;;19.93;100.00;99995.03;5012881;28;20041;-76
2022/09/09 07:39:12;;;;;;;2.10;1.55;;;;;;;19.89;100.00;99992.81;5013765;28;20050;-76
2022/09/09 07:41:43;;;;;;;3.08;1.60;;;;;;;19.70;100.00;99997.41;5015506;28;20050;-76
2022/09/09 07:44:13;;;;;;;3.13;1.30;;;;;;;19.70;100.00;99999.28;5015170;28;20053;-77
2022/09/09 07:46:43;;;;;;;4.20;1.50;;;;;;;19.76;100.00;99992.34;5015205;28;20507;-77
2022/09/09 07:49:12;;;;;;;3.22;1.65;;;;;;;19.89;100.00;99996.38;5016065;28;20046;-77
2022/09/09 07:51:44;;;;;;;2.60;1.70;;;;;;;19.87;100.00;100001.06;5016422;28;20061;-77
2022/09/09 07:54:15;;;;;;;3.95;1.85;;;;;;;19.85;100.00;100003.09;5016685;28;20100;-76
2022/09/09 07:56:43;;;;;;;3.10;1.45;;;;;;;19.84;100.00;100001.41;5016473;28;20038;-76
2022/09/09 07:59:11;;;;;;;4.82;1.70;;;;;;;19.81;100.00;100001.72;5016219;28;20397;-77
2022/09/09 08:01:42;;;;;;;2.85;1.60;;;;;;;19.96;100.00;99993.84;5016121;28;20045;-77
2022/09/09 08:04:14;;;;;;;3.17;1.52;;;;;;;20.07;100.00;99998.16;5015985;28;20042;-77
2022/09/09 08:06:46;;;;;;;3.95;1.60;;;;;;;20.12;100.00;99998.53;5015233;28;20061;-77
2022/09/09 08:09:15;;;;;;;2.90;1.58;;;;;;;20.23;100.00;99998.25;5015851;28;20052;-77
2022/09/09 08:11:44;;;;;;;2.63;1.42;;;;;;;20.53;100.00;100005.06;5016000;28;20046;-77
2022/09/09 08:14:13;;;;;;;2.33;1.50;;;;;;;20.60;100.00;100002.56;5016101;28;20444;-77
2022/09/09 08:16:43;;;;;;;6.25;1.60;;;;;;;20.44;100.00;100003.31;5014847;28;20515;-77
2022/09/09 08:19:12;;;;;;;3.05;1.70;;;;;;;20.46;100.00;100002.16;5015737;28;20495;-77
2022/09/09 08:21:41;;;;;;;3.63;2.00;;;;;;;20.45;100.00;100003.16;5015931;28;20527;-77
2022/09/09 08:24:12;;;;;;;2.78;1.73;;;;;;;20.68;100.00;99995.31;5015467;28;20046;-77
2022/09/09 08:26:42;;;;;;;2.13;1.60;;;;;;;20.79;100.00;100007.72;5014751;28;20058;-77
2022/09/09 08:29:12;;;;;;;2.50;1.70;;;;;;;20.72;100.00;100002.09;5015545;28;20096;-77
2022/09/09 08:31:42;;;;;;;2.75;1.80;;;;;;;20.81;100.00;100006.53;5016045;28;20085;-77
2022/09/09 08:34:10;;;;;;;5.05;2.20;;;;;;;20.78;100.00;99998.75;5015362;28;20050;-77
2022/09/09 08:36:42;;;;;;;2.92;1.85;;;;;;;20.73;100.00;99992.09;5015441;28;20493;-77
2022/09/09 08:39:13;;;;;;;3.47;2.00;;;;;;;20.86;100.00;99992.50;5014414;28;20060;-77
2022/09/09 08:42:18;;;;;;;4.00;1.92;;;;;;;20.99;100.00;99994.72;5015624;28;20042;-77
2022/09/09 08:45:02;;;;;;;4.15;2.03;;;;;;;21.06;100.00;99991.19;4974405;28;20054;-77
2022/09/09 08:47:40;;;;;;;4.18;2.25;;;;;;;21.14;100.00;99991.22;5009669;28;20042;-77
2022/09/09 08:50:24;;;;;;;3.20;2.05;;;;;;;21.05;100.00;99994.94;5013092;28;20124;-77
2022/09/09 08:52:59;;;;;;;3.97;2.40;;;;;;;20.86;100.00;100003.34;5014405;28;20073;-77
2022/09/09 08:55:38;;;;;;;4.47;1.95;;;;;;;20.90;100.00;100007.41;5015135;28;21022;-77
2022/09/09 08:58:12;;;;;;;3.78;1.90;;;;;;;21.04;100.00;100006.78;5013653;28;20104;-77
2022/09/09 09:00:52;;;;;;;4.45;1.90;;;;;;;20.92;100.00;100002.66;5015397;28;20052;-77
2022/09/09 09:03:30;;;;;;;3.80;1.75;;;;;;;21.08;100.00;100007.31;5015008;28;20042;-77
2022/09/09 09:06:06;;;;;;;3.88;1.80;;;;;;;21.25;100.00;100003.63;5013772;28;20054;-77
2022/09/09 09:08:44;;;;;;;5.05;1.83;;;;;;;21.15;100.00;100003.75;5014424;28;20132;-77
2022/09/09 09:11:13;;;;;;;3.88;2.00;;;;;;;21.19;100.00;99998.00;5014881;28;20042;-77
2022/09/09 09:13:46;;;;;;;2.80;1.88;;;;;;;21.22;100.00;100000.38;5014843;28;20133;-77
2022/09/09 09:16:24;;;;;;;2.40;1.60;;;;;;;21.17;100.00;100000.03;5013795;28;20452;-78
2022/09/09 09:18:54;;;;;;;3.78;1.73;;;;;;;21.45;100.00;100009.59;5015199;28;20050;-77
2022/09/09 09:21:34;;;;;;;3.35;1.73;;;;;;;21.45;100.00;100001.47;5014619;28;20046;-77
2022/09/09 09:24:11;;;;;;;2.58;1.40;;;;;;;21.63;100.00;99999.44;5014959;28;20125;-77
2022/09/09 09:26:43;;;;;;;3.90;1.50;;;;;;;21.69;100.00;99995.19;5014995;28;20374;-77
2022/09/09 09:29:15;;;;;;;4.20;1.58;;;;;;;21.74;100.00;99983.84;5013527;28;20046;-77
2022/09/09 09:31:47;;;;;;;4.03;1.70;;;;;;;22.00;100.00;99984.47;5014778;28;20076;-77
2022/09/09 09:34:17;;;;;;;;;;;;;;;21.97;100.00;99982.09;5014807;28;20515;-77
2022/09/09 09:36:53;;;;;;;3.17;1.40;;;;;;;21.95;100.00;99970.56;5013155;28;20004;-77
2022/09/09 09:39:26;;;;;;;3.25;1.77;;;;;;;22.09;100.00;99952.72;5014508;28;20042;-77
2022/09/09 09:42:17;;;;;;;;;;;;;;;22.20;100.00;99972.25;5014808;28;20042;-77
2022/09/09 09:44:50;;;;;;;4.18;1.60;;;;;;;22.17;100.00;99969.88;5014591;28;19961;-77
2022/09/09 09:47:20;;;;;;;3.38;1.60;;;;;;;22.25;100.00;99975.28;5014343;28;20420;-79
2022/09/09 09:49:53;;;;;;;2.45;1.42;;;;;;;22.15;100.00;99974.63;5013084;28;20077;-77
2022/09/09 09:52:23;;;;;;;3.70;1.70;;;;;;;22.22;100.00;99970.19;5014341;28;20062;-77
2022/09/09 09:54:53;;;;;;;2.72;1.50;;;;;;;22.22;100.00;99974.78;5012940;28;20052;-77
2022/09/09 09:57:29;;;;;;;2.63;1.77;;;;;;;22.48;100.00;99975.34;5013781;28;20412;-77
2022/09/09 10:00:15;;;;;;;4.68;1.60;;;;;;;22.39;100.00;99981.00;5012760;28;20054;-77
2022/09/09 10:02:46;;;;;;;1.88;1.40;;;;;;;22.55;100.00;99980.94;5014483;28;20133;-76
2022/09/09 10:05:17;;;;;;;2.78;1.38;;;;;;;22.29;100.00;99981.19;5014273;28;20073;-77
2022/09/09 10:08:03;;;;;;;2.33;1.50;;;;;;;22.33;100.00;99977.13;5013972;28;20100;-77
2022/09/09 10:10:52;;;;;;;1.60;1.05;;;;;;;22.57;100.00;99978.91;5013672;28;20037;-77
2022/09/09 10:13:31;;;;;;;2.45;1.33;;;;;;;22.78;100.00;99975.59;5012516;28;20046;-78
2022/09/09 10:16:16;;;;;;;3.50;1.30;;;;;;;22.93;100.00;99982.00;5012790;28;20136;-77
2022/09/09 10:18:58;;;;;;;1.33;1.08;;;;;;;23.07;100.00;99985.84;5013891;28;20408;-78
2022/09/09 10:21:39;;;;;;;1.95;1.17;;;;;;;22.98;100.00;99976.03;5013516;28;20053;-78
2022/09/09 10:24:41;;;;;;;1.73;1.20;;;;;;;23.15;100.00;99966.72;5013799;28;20042;-77
2022/09/09 10:27:20;;;;;;;1.52;1.20;;;;;;;23.42;100.00;99959.91;4999997;28;20068;-77
2022/09/09 10:30:10;;;;;;;3.42;1.40;;;;;;;23.37;100.00;99957.75;5012460;28;20045;-77
2022/09/09 10:32:50;;;;;;;2.75;1.20;;;;;;;23.33;100.00;99969.16;5012345;28;20049;-77
2022/09/09 10:35:27;;;;;;;2.17;1.23;;;;;;;23.45;100.00;99961.41;5011964;28;20045;-77
2022/09/09 10:38:15;;;;;;;2.67;1.30;;;;;;;23.63;100.00;99954.63;5013797;28;20038;-77
2022/09/09 10:41:01;;;;;;;2.63;1.30;;;;;;;23.52;100.00;99956.94;5012586;28;20057;-77
2022/09/09 10:43:49;;;;;;;2.95;1.30;;;;;;;23.60;100.00;99951.44;5011997;28;20129;-77
2022/09/09 10:46:29;;;;;;;1.95;1.20;;;;;;;23.81;100.00;99951.59;5013175;28;20528;-77
2022/09/09 10:49:10;;;;;;;2.13;1.33;;;;;;;23.82;100.00;99955.16;5012029;28;20054;-77
2022/09/09 10:51:47;;;;;;;4.00;1.40;;;;;;;23.85;100.00;99958.38;5013137;28;20062;-77
2022/09/09 10:54:33;;;;;;;2.05;1.27;;;;;;;23.94;100.00;99957.25;5012991;28;20041;-78
2022/09/09 10:57:06;;;;;;;4.30;1.08;;;;;;;23.86;100.00;99954.63;5011774;28;20092;-77
2022/09/09 10:59:37;;;;;;;;;;;;;;;24.01;100.00;99951.06;5012049;28;20053;-77
2022/09/09 11:02:19;;;;;;;1.67;1.00;;;;;;;24.11;100.00;99957.06;5011920;28;19957;-77
2022/09/09 11:04:55;;;;;;;2.97;1.30;;;;;;;24.12;100.00;99953.31;5013330;28;20042;-77
2022/09/09 11:07:29;;;;;;;2.15;1.20;;;;;;;23.95;80.81;99953.50;5011782;28;20046;-77
2022/09/09 11:10:03;;;;;;;1.63;1.13;;;;;;;23.96;71.98;99949.75;5013081;28;20104;-77
2022/09/09 11:12:34;;;;;;;2.45;1.33;;;;;;;23.91;67.94;99957.63;5012886;28;20136;-77
2022/09/09 11:15:07;;;;;;;1.92;1.13;;;;;;;23.94;60.17;99956.41;5015929;28;20065;-77
2022/09/09 11:17:41;;;;;;;;;;;;;;;23.98;60.40;99942.22;5016119;28;20559;-77
2022/09/09 11:20:13;;;;;;;1.85;1.23;;;;;;;23.90;61.47;99942.31;5017160;28;20328;-77
2022/09/09 11:22:49;;;;;;;2.05;1.27;;;;;;;24.10;61.90;99944.47;5016084;28;20463;-77
2022/09/09 11:25:19;;;;;;;1.80;1.30;;;;;;;24.11;63.71;99948.91;5016896;28;20050;-83
2022/09/09 11:28:01;;;;;;;2.58;1.20;;;;;;;24.15;62.27;99944.78;5016887;28;20050;-77
2022/09/09 11:30:40;;;;;;;2.90;1.45;;;;;;;24.25;62.49;99943.47;5016837;28;20050;-77
2022/09/09 11:33:59;;;;;;;3.63;1.50;;;;;;;24.39;62.84;99936.34;5016709;28;20501;-77
2022/09/09 11:36:44;;;;;;;2.58;1.50;;;;;;;24.49;63.25;99942.34;5016953;28;20049;-77
2022/09/09 11:39:39;;;;;;;2.13;1.25;;;;;;;24.42;61.16;99941.44;5015639;28;20096;-77
2022/09/09 11:42:17;;;;;;;2.30;1.40;;;;;;;24.46;61.73;99940.00;5016660;28;20089;-77
2022/09/09 11:44:45;;;;;;;2.65;1.40;;;;;;;24.34;62.75;99936.06;5017008;28;20138;-77
2022/09/09 11:47:22;;;;;;;2.55;1.38;;;;;;;24.27;61.32;99930.50;5015483;28;20420;-77
2022/09/09 11:49:53;;;;;;;2.13;1.35;;;;;;;24.43;61.04;99929.50;5016453;28;20042;-77
2022/09/09 11:52:25;;;;;;;4.80;1.60;;;;;;;24.65;60.17;99915.91;5015935;28;20061;-78
2022/09/09 11:54:56;;;;;;;3.70;1.40;;;;;;;24.67;59.50;99919.28;5015775;28;20050;-77
2022/09/09 11:57:31;;;;;;;2.22;1.33;;;;;;;24.46;59.39;99923.66;5015207;28;20057;-77